createdAt,value
2018-08-28T00:00:33.915Z,23.45
2018-08-28T00:03:01.518Z,23.45
2018-08-28T00:05:29.152Z,23.46
2018-08-28T00:07:56.766Z,23.44
2018-08-28T00:10:24.397Z,23.44
2018-08-28T00:12:52.051Z,23.40
2018-08-28T00:15:18.700Z,23.45
2018-08-28T00:17:46.336Z,23.44
2018-08-28T00:20:14.419Z,23.44
2018-08-28T00:22:42.026Z,23.42
2018-08-28T00:25:09.625Z,23.40
2018-08-28T00:27:37.574Z,23.42
2018-08-28T00:30:04.224Z,23.44
2018-08-28T00:32:30.865Z,23.45
2018-08-28T00:34:57.504Z,23.44
2018-08-28T00:37:24.137Z,23.44
2018-08-28T00:39:51.997Z,23.42
2018-08-28T00:42:18.640Z,23.42
2018-08-28T00:44:45.268Z,23.43
2018-08-28T00:47:11.927Z,23.40
2018-08-28T00:49:38.565Z,23.43
2018-08-28T00:52:05.488Z,23.41
2018-08-28T00:54:32.130Z,23.40
2018-08-28T00:56:58.788Z,23.40
2018-08-28T00:59:25.424Z,23.40
2018-08-28T01:01:52.880Z,23.44
2018-08-28T01:04:19.528Z,23.45
2018-08-28T01:06:47.128Z,23.42
2018-08-28T01:09:14.687Z,23.43
2018-08-28T01:11:42.255Z,23.40
2018-08-28T01:14:09.728Z,23.40
2018-08-28T01:16:37.329Z,23.40
2018-08-28T01:19:05.031Z,23.38
2018-08-28T01:21:32.652Z,23.35
2018-08-28T01:24:00.092Z,23.37
2018-08-28T01:26:27.648Z,23.34
2018-08-28T01:28:55.228Z,23.36
2018-08-28T01:31:22.860Z,23.39
2018-08-28T01:33:51.221Z,23.37
2018-08-28T01:36:18.859Z,23.37
2018-08-28T01:38:46.364Z,23.39
2018-08-28T01:41:14.343Z,23.40
2018-08-28T01:43:41.879Z,23.37
2018-08-28T01:46:09.364Z,23.36
2018-08-28T01:48:37.004Z,23.41
2018-08-28T01:51:03.789Z,23.38
2018-08-28T01:53:31.272Z,23.36
2018-08-28T01:55:57.927Z,23.39
2018-08-28T01:58:25.361Z,23.37
2018-08-28T02:00:52.552Z,23.38
2018-08-28T02:03:21.149Z,23.38
2018-08-28T02:05:48.735Z,23.36
2018-08-28T02:08:16.331Z,23.34
2018-08-28T02:10:44.433Z,23.34
2018-08-28T02:13:11.093Z,23.36
2018-08-28T02:15:38.784Z,23.37
2018-08-28T02:18:06.393Z,23.36
2018-08-28T02:20:34.057Z,23.36
2018-08-28T02:23:01.637Z,23.36
2018-08-28T02:25:29.317Z,23.36
2018-08-28T02:27:56.888Z,23.35
2018-08-28T02:30:24.549Z,23.34
2018-08-28T02:32:52.124Z,23.36
2018-08-28T02:35:19.797Z,23.37
2018-08-28T02:37:47.456Z,23.36
2018-08-28T02:40:15.169Z,23.32
2018-08-28T02:42:43.711Z,23.32
2018-08-28T02:45:11.304Z,23.31
2018-08-28T02:47:39.054Z,23.27
2018-08-28T02:50:06.624Z,23.27
2018-08-28T02:52:34.260Z,23.32
2018-08-28T02:55:01.885Z,23.32
2018-08-28T02:57:29.501Z,23.29
2018-08-28T02:59:56.319Z,23.25
2018-08-28T03:02:23.984Z,23.28
2018-08-28T03:04:53.045Z,23.26
2018-08-28T03:07:21.261Z,23.25
2018-08-28T03:09:48.757Z,23.26
2018-08-28T03:12:16.319Z,23.26
2018-08-28T03:14:44.469Z,23.22
2018-08-28T03:17:12.085Z,23.23
2018-08-28T03:19:39.700Z,23.22
2018-08-28T03:22:07.291Z,23.23
2018-08-28T03:24:34.912Z,23.22
2018-08-28T03:27:02.568Z,23.24
2018-08-28T03:29:30.178Z,23.23
2018-08-28T03:31:57.796Z,23.25
2018-08-28T03:34:25.420Z,23.21
2018-08-28T03:36:53.152Z,23.29
2018-08-28T03:39:21.829Z,23.24
2018-08-28T03:41:48.469Z,23.22
2018-08-28T03:44:15.104Z,23.23
2018-08-28T03:46:43.662Z,23.19
2018-08-28T03:49:11.273Z,23.26
2018-08-28T03:51:38.964Z,23.23
2018-08-28T03:54:05.613Z,23.23
2018-08-28T03:56:32.257Z,23.25
2018-08-28T03:58:58.893Z,23.23
2018-08-28T04:01:25.540Z,23.26
2018-08-28T04:03:52.233Z,23.29
2018-08-28T04:06:18.913Z,23.21
2018-08-28T04:08:45.569Z,23.31
2018-08-28T04:11:14.529Z,23.23
2018-08-28T04:13:42.013Z,23.18
2018-08-28T04:16:09.616Z,23.16
2018-08-28T04:18:37.411Z,23.16
2018-08-28T04:21:04.866Z,23.16
2018-08-28T04:23:32.530Z,23.20
2018-08-28T04:26:00.168Z,23.16
2018-08-28T04:28:26.821Z,23.17
2018-08-28T04:30:54.390Z,23.18
2018-08-28T04:33:21.974Z,23.24
2018-08-28T04:35:49.600Z,23.26
2018-08-28T04:38:17.333Z,23.25
2018-08-28T04:40:45.813Z,23.25
2018-08-28T04:43:14.361Z,23.23
2018-08-28T04:45:41.962Z,23.21
2018-08-28T04:48:09.734Z,23.21
2018-08-28T04:50:37.409Z,23.20
2018-08-28T04:53:04.972Z,23.27
2018-08-28T04:55:32.597Z,23.20
2018-08-28T04:57:59.254Z,23.20
2018-08-28T05:00:26.853Z,23.23
2018-08-28T05:02:54.501Z,23.23
2018-08-28T05:05:22.095Z,23.24
2018-08-28T05:07:49.709Z,23.21
2018-08-28T05:10:17.297Z,23.19
2018-08-28T05:12:44.879Z,23.23
2018-08-28T05:15:13.552Z,23.15
2018-08-28T05:17:41.224Z,23.20
2018-08-28T05:20:08.829Z,23.20
2018-08-28T05:22:36.426Z,23.15
2018-08-28T05:25:04.028Z,23.23
2018-08-28T05:27:31.628Z,23.24
2018-08-28T05:29:59.248Z,23.21
2018-08-28T05:32:25.903Z,23.20
2018-08-28T05:34:53.412Z,23.25
2018-08-28T05:37:21.821Z,23.25
2018-08-28T05:39:49.265Z,23.18
2018-08-28T05:42:16.848Z,23.27
2018-08-28T05:44:44.464Z,23.19
2018-08-28T05:47:11.928Z,23.22
2018-08-28T05:49:38.643Z,23.19
2018-08-28T05:52:05.274Z,23.16
2018-08-28T05:54:32.737Z,23.22
2018-08-28T05:56:59.369Z,23.19
2018-08-28T05:59:26.816Z,23.23
2018-08-28T06:01:53.569Z,23.15
2018-08-28T06:04:22.347Z,23.18
2018-08-28T06:06:48.998Z,23.23
2018-08-28T06:09:16.472Z,23.25
2018-08-28T06:11:45.028Z,23.17
2018-08-28T06:14:13.609Z,23.20
2018-08-28T06:16:41.201Z,23.21
2018-08-28T06:19:08.812Z,23.23
2018-08-28T06:21:36.388Z,23.27
2018-08-28T06:24:03.033Z,23.22
2018-08-28T06:26:30.668Z,23.17
2018-08-28T06:28:57.336Z,23.26
2018-08-28T06:31:24.928Z,23.24
2018-08-28T06:33:52.634Z,23.23
2018-08-28T06:36:20.884Z,23.24
2018-08-28T06:38:48.425Z,23.22
2018-08-28T06:41:15.080Z,23.28
2018-08-28T06:43:43.827Z,23.27
2018-08-28T06:46:11.269Z,23.31
2018-08-28T06:48:38.941Z,23.25
2018-08-28T06:51:06.548Z,23.25
2018-08-28T06:53:34.208Z,23.27
2018-08-28T06:56:01.780Z,23.26
2018-08-28T06:58:28.441Z,23.33
2018-08-28T07:00:56.089Z,23.38
2018-08-28T07:03:23.697Z,23.36
2018-08-28T07:05:52.360Z,23.38
2018-08-28T07:08:21.233Z,23.34
2018-08-28T07:10:48.693Z,23.38
2018-08-28T07:13:15.353Z,23.35
2018-08-28T07:15:41.988Z,23.40
2018-08-28T07:18:09.496Z,23.39
2018-08-28T07:20:37.069Z,23.39
2018-08-28T07:23:04.650Z,23.40
2018-08-28T07:25:32.223Z,23.37
2018-08-28T07:27:58.848Z,23.36
2018-08-28T07:30:26.424Z,23.39
2018-08-28T07:32:53.078Z,23.35
2018-08-28T07:35:21.973Z,23.38
2018-08-28T07:37:48.610Z,23.39
2018-08-28T07:40:15.281Z,23.41
2018-08-28T07:42:44.013Z,23.41
2018-08-28T07:45:10.604Z,23.44
2018-08-28T07:47:38.249Z,23.41
2018-08-28T07:50:05.672Z,23.41
2018-08-28T07:52:32.328Z,23.39
2018-08-28T07:54:58.968Z,23.40
2018-08-28T07:57:25.608Z,23.43
2018-08-28T07:59:52.263Z,23.39
2018-08-28T08:02:18.909Z,23.44
2018-08-28T08:04:45.545Z,23.45
2018-08-28T08:07:12.188Z,23.45
2018-08-28T08:09:38.828Z,23.42
2018-08-28T08:12:05.465Z,23.42
2018-08-28T08:14:32.109Z,23.42
2018-08-28T08:16:58.729Z,23.44
2018-08-28T08:19:25.377Z,23.46
2018-08-28T08:21:52.438Z,23.45
2018-08-28T08:24:20.073Z,23.45
2018-08-28T08:26:47.721Z,23.44
2018-08-28T08:29:15.320Z,23.47
2018-08-28T08:31:43.473Z,23.46
2018-08-28T08:34:11.128Z,23.47
2018-08-28T08:36:38.888Z,23.47
2018-08-28T08:39:07.330Z,23.45
2018-08-28T08:41:34.053Z,23.46
2018-08-28T08:44:01.520Z,23.49
2018-08-28T08:46:29.184Z,23.50
2018-08-28T08:48:56.754Z,23.49
2018-08-28T08:51:24.356Z,23.48
2018-08-28T08:53:53.139Z,23.47
2018-08-28T08:56:21.465Z,23.43
2018-08-28T08:58:49.108Z,23.44
2018-08-28T09:01:16.316Z,23.47
2018-08-28T09:03:43.460Z,23.48
2018-08-28T09:06:11.245Z,23.44
2018-08-28T09:08:38.757Z,23.46
2018-08-28T09:11:06.465Z,23.46
2018-08-28T09:13:33.215Z,23.47
2018-08-28T09:16:00.657Z,23.48
2018-08-28T09:18:27.289Z,23.50
2018-08-28T09:20:54.929Z,23.48
2018-08-28T09:23:22.516Z,23.49
2018-08-28T09:25:50.214Z,23.48
2018-08-28T09:28:17.484Z,23.47
2018-08-28T09:30:45.800Z,23.47
2018-08-28T09:33:14.328Z,23.48
2018-08-28T09:35:41.992Z,23.47
2018-08-28T09:38:09.618Z,23.48
2018-08-28T09:40:37.278Z,23.49
2018-08-28T09:43:04.973Z,23.46
2018-08-28T09:45:32.577Z,23.45
2018-08-28T09:48:00.207Z,23.46
2018-08-28T09:50:27.683Z,23.46
2018-08-28T09:52:55.265Z,23.48
2018-08-28T09:55:23.476Z,23.48
2018-08-28T09:57:52.372Z,23.48
2018-08-28T10:00:25.529Z,23.45
2018-08-28T10:02:52.501Z,23.45
2018-08-28T10:05:20.168Z,23.46
2018-08-28T10:07:46.920Z,23.47
2018-08-28T10:10:14.385Z,23.47
2018-08-28T10:12:42.196Z,23.47
2018-08-28T10:15:09.888Z,23.48
2018-08-28T10:17:37.422Z,23.50
2018-08-28T10:20:05.024Z,23.47
2018-08-28T10:22:32.653Z,23.50
2018-08-28T10:24:59.307Z,23.51
2018-08-28T10:27:26.912Z,23.49
2018-08-28T10:29:54.886Z,23.48
2018-08-28T10:32:22.428Z,23.48
2018-08-28T10:34:49.873Z,23.50
2018-08-28T10:37:17.507Z,23.49
2018-08-28T10:39:46.325Z,23.48
2018-08-28T10:42:13.420Z,23.47
2018-08-28T10:44:40.904Z,23.48
2018-08-28T10:47:08.563Z,23.48
2018-08-28T10:49:36.222Z,23.49
2018-08-28T10:52:03.722Z,23.50
2018-08-28T10:54:31.261Z,23.50
2018-08-28T10:56:58.890Z,23.48
2018-08-28T10:59:25.554Z,23.49
2018-08-28T11:01:53.154Z,23.48
2018-08-28T11:04:20.807Z,23.47
2018-08-28T11:06:48.434Z,23.50
2018-08-28T11:09:16.088Z,23.55
2018-08-28T11:11:44.732Z,23.61
2018-08-28T11:14:11.552Z,23.68
2018-08-28T11:16:38.192Z,23.73
2018-08-28T11:19:04.840Z,23.81
2018-08-28T11:21:31.489Z,23.87
2018-08-28T11:23:58.146Z,23.88
2018-08-28T11:26:24.787Z,23.89
2018-08-28T11:28:52.152Z,23.90
2018-08-28T11:31:19.880Z,23.89
2018-08-28T11:33:47.448Z,23.91
2018-08-28T11:36:16.172Z,23.91
2018-08-28T11:38:44.793Z,23.89
2018-08-28T11:41:12.296Z,23.89
2018-08-28T11:43:38.927Z,23.88
2018-08-28T11:46:06.487Z,23.89
2018-08-28T11:48:34.209Z,23.89
2018-08-28T11:51:01.806Z,23.88
2018-08-28T11:53:29.432Z,23.85
2018-08-28T11:55:57.080Z,23.88
2018-08-28T11:58:24.720Z,23.87
2018-08-28T12:00:52.317Z,23.87
2018-08-28T12:03:19.925Z,23.88
2018-08-28T12:05:47.545Z,23.85
2018-08-28T12:08:15.201Z,23.85
2018-08-28T12:10:43.660Z,23.85
2018-08-28T12:13:10.363Z,23.86
2018-08-28T12:15:38.234Z,23.86
2018-08-28T12:18:05.886Z,23.87
2018-08-28T12:20:33.581Z,23.86
2018-08-28T12:23:00.974Z,23.84
2018-08-28T12:25:28.666Z,23.84
2018-08-28T12:27:56.236Z,23.83
2018-08-28T12:30:23.768Z,23.83
2018-08-28T12:32:52.660Z,23.84
2018-08-28T12:35:20.114Z,23.85
2018-08-28T12:37:47.724Z,23.85
2018-08-28T12:40:15.296Z,23.83
2018-08-28T12:42:43.457Z,23.83
2018-08-28T12:45:10.901Z,23.82
2018-08-28T12:47:39.224Z,23.82
2018-08-28T12:50:05.927Z,23.82
2018-08-28T12:52:33.505Z,23.82
2018-08-28T12:55:00.189Z,23.83
2018-08-28T12:57:27.800Z,23.82
2018-08-28T12:59:55.361Z,23.82
2018-08-28T13:02:22.656Z,23.83
2018-08-28T13:04:49.249Z,23.81
2018-08-28T13:07:16.737Z,23.80
2018-08-28T13:09:43.957Z,23.80
2018-08-28T13:12:11.585Z,23.81
2018-08-28T13:14:39.250Z,23.83
2018-08-28T13:17:06.793Z,23.81
2018-08-28T13:19:34.432Z,23.79
2018-08-28T13:22:02.034Z,23.78
2018-08-28T13:24:29.597Z,23.79
2018-08-28T13:26:57.250Z,23.82
2018-08-28T13:29:24.874Z,23.78
2018-08-28T13:31:52.453Z,23.77
2018-08-28T13:34:20.061Z,23.76
2018-08-28T13:36:47.673Z,23.78
2018-08-28T13:39:15.358Z,23.77
2018-08-28T13:41:43.498Z,23.76
2018-08-28T13:44:11.672Z,23.77
2018-08-28T13:46:39.292Z,23.75
2018-08-28T13:49:06.893Z,23.76
2018-08-28T13:51:34.548Z,23.76
2018-08-28T13:54:02.305Z,23.75
2018-08-28T13:56:29.723Z,23.74
2018-08-28T13:58:57.332Z,23.75
2018-08-28T14:01:24.634Z,23.76
2018-08-28T14:03:52.257Z,23.74
2018-08-28T14:06:19.885Z,23.75
2018-08-28T14:08:47.606Z,23.75
2018-08-28T14:11:15.213Z,23.75
2018-08-28T14:13:41.974Z,23.75
2018-08-28T14:16:09.552Z,23.77
2018-08-28T14:18:37.129Z,23.74
2018-08-28T14:21:04.704Z,23.76
2018-08-28T14:23:32.361Z,23.75
2018-08-28T14:25:59.822Z,23.74
2018-08-28T14:28:27.785Z,23.74
2018-08-28T14:30:55.377Z,23.73
2018-08-28T14:33:24.349Z,23.74
2018-08-28T14:35:51.896Z,23.76
2018-08-28T14:38:19.785Z,23.73
2018-08-28T14:40:47.444Z,23.74
2018-08-28T14:43:14.732Z,23.73
2018-08-28T14:45:41.370Z,23.73
2018-08-28T14:48:08.941Z,23.75
2018-08-28T14:50:35.683Z,23.72
2018-08-28T14:53:03.266Z,23.73
2018-08-28T14:55:29.908Z,23.74
2018-08-28T14:57:57.577Z,23.74
2018-08-28T15:00:25.173Z,23.73
2018-08-28T15:02:52.784Z,23.72
2018-08-28T15:05:20.368Z,23.71
2018-08-28T15:07:58.593Z,23.72
2018-08-28T15:10:26.289Z,23.66
2018-08-28T15:12:57.076Z,23.71
2018-08-28T15:15:26.488Z,23.71
2018-08-28T15:17:55.690Z,23.70
2018-08-28T15:20:24.039Z,23.70
2018-08-28T15:22:53.055Z,23.70
2018-08-28T15:25:21.987Z,23.71
2018-08-28T15:27:53.746Z,23.70
2018-08-28T15:30:27.066Z,23.68
2018-08-28T15:32:55.074Z,23.69
2018-08-28T15:35:22.983Z,23.69
2018-08-28T15:37:52.429Z,23.69
2018-08-28T15:40:20.201Z,23.70
2018-08-28T15:42:53.656Z,23.71
2018-08-28T15:45:21.801Z,23.70
2018-08-28T15:47:49.481Z,23.69
2018-08-28T15:50:17.467Z,23.71
2018-08-28T15:52:46.767Z,23.71
2018-08-28T15:55:15.917Z,23.71
2018-08-28T15:57:46.779Z,23.70
2018-08-28T16:00:14.352Z,23.68
2018-08-28T16:02:46.265Z,23.67
2018-08-28T16:05:16.788Z,23.67
2018-08-28T16:07:44.981Z,23.66
2018-08-28T16:10:12.090Z,23.67
2018-08-28T16:12:43.870Z,23.68
2018-08-28T16:15:12.300Z,23.66
2018-08-28T16:17:45.152Z,23.68
2018-08-28T16:22:55.142Z,23.61
2018-08-28T16:25:29.209Z,23.65
2018-08-28T16:27:59.520Z,23.66
2018-08-28T16:30:29.312Z,23.67
2018-08-28T16:33:00.502Z,23.67
2018-08-28T16:35:29.366Z,23.67
2018-08-28T16:37:57.035Z,23.66
2018-08-28T16:40:24.777Z,23.67
2018-08-28T16:42:53.058Z,23.67
2018-08-28T16:45:21.831Z,23.68
2018-08-28T16:47:52.030Z,23.66
2018-08-28T16:50:25.502Z,23.64
2018-08-28T16:52:54.067Z,23.63
2018-08-28T16:55:24.058Z,23.64
2018-08-28T16:57:54.284Z,23.65
2018-08-28T17:00:25.134Z,23.65
2018-08-28T17:02:53.478Z,23.63
2018-08-28T17:05:20.250Z,23.64
2018-08-28T17:07:49.309Z,23.64
2018-08-28T17:10:18.187Z,23.64
2018-08-28T17:12:46.419Z,23.63
2018-08-28T17:17:49.061Z,23.61
2018-08-28T17:20:17.884Z,23.61
2018-08-28T17:22:46.233Z,23.64
2018-08-28T17:25:14.798Z,23.64
2018-08-28T17:27:49.820Z,23.63
2018-08-28T17:30:23.382Z,23.62
2018-08-28T17:33:01.254Z,23.59
2018-08-28T17:35:32.135Z,23.58
2018-08-28T17:38:00.170Z,23.60
2018-08-28T17:40:29.598Z,23.62
2018-08-28T17:43:03.438Z,23.63
2018-08-28T17:45:33.651Z,23.59
2018-08-28T17:48:02.541Z,23.58
2018-08-28T17:50:31.582Z,23.58
2018-08-28T17:53:01.079Z,23.58
2018-08-28T17:55:30.413Z,23.60
2018-08-28T17:57:59.711Z,23.59
2018-08-28T18:00:28.680Z,23.59
2018-08-28T18:02:58.112Z,23.59
2018-08-28T18:05:27.761Z,23.58
2018-08-28T18:08:00.464Z,23.59
2018-08-28T18:10:31.898Z,23.55
2018-08-28T18:13:02.565Z,23.54
2018-08-28T18:15:32.118Z,23.52
2018-08-28T18:18:01.666Z,23.54
2018-08-28T18:20:31.003Z,23.54
2018-08-28T18:22:58.504Z,23.55
2018-08-28T18:25:26.103Z,23.50
2018-08-28T18:27:53.580Z,23.49
2018-08-28T18:30:20.368Z,23.47
2018-08-28T18:32:48.035Z,23.49
2018-08-28T18:35:14.688Z,23.47
2018-08-28T18:37:41.326Z,23.50
2018-08-28T18:40:07.978Z,23.49
2018-08-28T18:42:34.644Z,23.45
2018-08-28T18:45:01.304Z,23.45
2018-08-28T18:47:27.944Z,23.48
2018-08-28T18:49:54.599Z,23.47
2018-08-28T18:52:22.566Z,23.46
2018-08-28T18:54:51.414Z,23.44
2018-08-28T18:57:18.924Z,23.44
2018-08-28T18:59:46.401Z,23.46
2018-08-28T19:02:14.713Z,23.45
2018-08-28T19:04:42.105Z,23.42
2018-08-28T19:07:09.580Z,23.40
2018-08-28T19:09:36.274Z,23.43
2018-08-28T19:14:38.108Z,23.35
2018-08-28T19:17:05.683Z,23.32
2018-08-28T19:19:33.320Z,23.43
2018-08-28T19:22:00.904Z,23.36
2018-08-28T19:24:28.564Z,23.38
2018-08-28T19:26:56.161Z,23.41
2018-08-28T19:29:23.781Z,23.38
2018-08-28T19:31:52.880Z,23.38
2018-08-28T19:34:20.445Z,23.37
2018-08-28T19:36:48.057Z,23.37
2018-08-28T19:39:15.662Z,23.41
2018-08-28T19:41:43.929Z,23.38
2018-08-28T19:44:11.671Z,23.42
2018-08-28T19:46:39.243Z,23.34
2018-08-28T19:49:06.859Z,23.33
2018-08-28T19:51:34.452Z,23.33
2018-08-28T19:54:01.197Z,23.33
2018-08-28T19:56:28.687Z,23.37
2018-08-28T19:58:56.375Z,23.35
2018-08-28T20:01:23.021Z,23.33
2018-08-28T20:03:51.430Z,23.35
2018-08-28T20:06:19.119Z,23.36
2018-08-28T20:08:45.772Z,23.34
2018-08-28T20:11:14.199Z,23.33
2018-08-28T20:13:40.868Z,23.36
2018-08-28T20:16:07.494Z,23.33
2018-08-28T20:18:34.152Z,23.33
2018-08-28T20:21:01.772Z,23.29
2018-08-28T20:23:29.380Z,23.33
2018-08-28T20:25:56.976Z,23.30
2018-08-28T20:28:23.636Z,23.31
2018-08-28T20:30:52.410Z,23.31
2018-08-28T20:33:19.045Z,23.30
2018-08-28T20:35:46.529Z,23.31
2018-08-28T20:38:14.224Z,23.33
2018-08-28T20:40:41.905Z,23.32
2018-08-28T20:43:08.849Z,23.29
2018-08-28T20:45:36.391Z,23.29
2018-08-28T20:48:04.125Z,23.30
2018-08-28T20:50:30.762Z,23.28
2018-08-28T20:52:57.396Z,23.25
2018-08-28T20:55:24.957Z,23.26
2018-08-28T20:57:52.519Z,23.28
2018-08-28T21:00:20.141Z,23.21
2018-08-28T21:02:47.512Z,23.25
2018-08-28T21:05:21.973Z,23.24
2018-08-28T21:07:48.635Z,23.25
2018-08-28T21:10:16.316Z,23.26
2018-08-28T21:12:44.886Z,23.27
2018-08-28T21:15:13.510Z,23.27
2018-08-28T21:17:41.084Z,23.26
2018-08-28T21:20:08.980Z,23.24
2018-08-28T21:22:36.513Z,23.26
2018-08-28T21:25:04.209Z,23.28
2018-08-28T21:27:31.801Z,23.25
2018-08-28T21:29:58.628Z,23.25
2018-08-28T21:32:26.072Z,23.20
2018-08-28T21:34:53.516Z,23.23
2018-08-28T21:37:21.146Z,23.20
2018-08-28T21:39:48.716Z,23.22
2018-08-28T21:42:16.386Z,23.25
2018-08-28T21:44:44.510Z,23.27
2018-08-28T21:47:12.156Z,23.24
2018-08-28T21:49:39.816Z,23.22
2018-08-28T21:52:07.393Z,23.19
2018-08-28T21:54:35.036Z,23.22
2018-08-28T21:57:02.651Z,23.23
2018-08-28T21:59:30.278Z,23.25
2018-08-28T22:01:57.868Z,23.24
2018-08-28T22:04:25.444Z,23.27
2018-08-28T22:09:02.271Z,23.26
2018-08-28T22:11:28.945Z,22.49
2018-08-28T22:13:55.576Z,22.89
2018-08-28T22:16:22.748Z,23.07
2018-08-28T22:18:49.524Z,23.18
2018-08-28T22:21:17.001Z,23.20
2018-08-28T22:23:44.601Z,23.21
2018-08-28T22:26:12.220Z,23.21
2018-08-28T22:28:39.817Z,23.20
2018-08-28T22:31:07.422Z,23.17
2018-08-28T22:33:34.896Z,23.20
2018-08-28T22:36:02.546Z,23.22
2018-08-28T22:38:30.153Z,23.19
2018-08-28T22:40:57.813Z,23.19
2018-08-28T22:43:25.344Z,23.17
2018-08-28T22:45:52.804Z,23.16
2018-08-28T22:48:20.441Z,23.23
2018-08-28T22:50:48.037Z,23.18
2018-08-28T22:53:15.703Z,23.18
2018-08-28T22:55:44.317Z,23.18
2018-08-28T22:58:10.969Z,23.16
2018-08-28T23:00:38.431Z,23.18
2018-08-28T23:03:05.153Z,23.15
2018-08-28T23:05:32.800Z,23.17
2018-08-28T23:07:59.453Z,23.16
2018-08-28T23:10:26.100Z,23.16
2018-08-28T23:12:52.755Z,23.17
2018-08-28T23:15:19.404Z,23.18
2018-08-28T23:17:46.093Z,23.18
2018-08-28T23:20:13.682Z,23.16
2018-08-28T23:22:40.326Z,23.15
2018-08-28T23:25:06.960Z,23.19
2018-08-28T23:27:33.600Z,23.18
2018-08-28T23:30:00.241Z,23.16
2018-08-28T23:32:26.876Z,23.15
2018-08-28T23:34:53.531Z,23.17
2018-08-28T23:37:21.792Z,23.17
2018-08-28T23:39:49.296Z,23.15
2018-08-28T23:42:16.924Z,23.16
2018-08-28T23:44:44.432Z,23.16
2018-08-28T23:47:12.010Z,23.15
2018-08-28T23:49:39.667Z,23.14
2018-08-28T23:52:08.184Z,23.14
2018-08-28T23:54:36.352Z,23.13
2018-08-28T23:57:03.967Z,23.14
2018-08-28T23:59:32.560Z,23.15
